Time;durP1;ratioP1;P1;durP2;ratioP2;P2;SDS_P1;SDS_P2;PMS_P1;PMS_P2;Temp;Humidity;BMP_temperature;BMP_pressure;BME280_temperature;BME280_humidity;BME280_pressure;Samples;Min_cycle;Max_cycle;Signal;HPM_P1;HPM_P2
2022/11/19 00:01:21;;;;;;;27.53;25.23;;;9.60;99.90;;;;;;5055557;28;20602;-70
2022/11/19 00:03:48;;;;;;;27.50;25.10;;;9.60;99.90;;;;;;5056664;28;20585;-70
2022/11/19 00:06:16;;;;;;;28.67;25.97;;;9.50;99.90;;;;;;5053611;28;20490;-68
2022/11/19 00:08:44;;;;;;;26.63;24.20;;;9.40;99.90;;;;;;5056718;28;21007;-69
2022/11/19 00:11:12;;;;;;;27.17;24.73;;;9.50;99.90;;;;;;5064540;28;20832;-69
2022/11/19 00:13:41;;;;;;;26.33;24.13;;;9.50;99.90;;;;;;5048061;28;20475;-69
2022/11/19 00:16:10;;;;;;;27.10;24.57;;;9.40;99.90;;;;;;5057737;28;20467;-69
2022/11/19 00:18:37;;;;;;;26.93;23.90;;;9.40;99.90;;;;;;5057358;28;20462;-69
2022/11/19 00:21:06;;;;;;;26.13;23.70;;;9.40;99.90;;;;;;5057736;28;20502;-69
2022/11/19 00:23:33;;;;;;;26.40;24.10;;;9.30;99.90;;;;;;5057339;28;20555;-69
2022/11/19 00:26:05;;;;;;;25.73;23.47;;;9.40;99.90;;;;;;5056202;28;20551;-69
2022/11/19 00:28:33;;;;;;;26.40;24.20;;;9.40;99.90;;;;;;5053710;28;20472;-69
2022/11/19 00:31:06;;;;;;;25.30;22.80;;;9.30;99.90;;;;;;5052448;28;20455;-69
2022/11/19 00:33:33;;;;;;;26.63;24.53;;;9.40;99.90;;;;;;5052173;28;20455;-69
2022/11/19 00:36:01;;;;;;;26.27;23.97;;;9.40;99.90;;;;;;5063971;28;20478;-70
2022/11/19 00:38:29;;;;;;;25.07;22.80;;;9.40;99.90;;;;;;5061450;28;20471;-70
2022/11/19 00:40:57;;;;;;;24.23;22.23;;;9.40;99.90;;;;;;5063392;28;20506;-70
2022/11/19 00:46:24;;;;;;;22.83;21.33;;;9.10;99.90;;;;;;5016782;28;20467;-70
2022/11/19 00:48:53;;;;;;;23.43;21.50;;;8.80;99.90;;;;;;5053919;28;20499;-70
2022/11/19 00:51:22;;;;;;;21.90;20.20;;;8.70;99.90;;;;;;5054208;28;20471;-70
2022/11/19 00:53:49;;;;;;;21.93;20.33;;;8.50;99.90;;;;;;5061386;28;20471;-69
2022/11/19 00:56:18;;;;;;;23.63;21.97;;;8.40;99.90;;;;;;5066493;28;21004;-70
2022/11/19 00:58:45;;;;;;;22.37;20.80;;;8.20;99.90;;;;;;5062550;28;20474;-70
2022/11/19 01:01:13;;;;;;;25.07;22.77;;;8.10;99.90;;;;;;5060732;28;20971;-69
2022/11/19 01:03:44;;;;;;;24.83;22.60;;;8.00;99.90;;;;;;5061967;28;20473;-69
2022/11/19 01:06:12;;;;;;;24.50;22.53;;;8.00;99.90;;;;;;5057708;28;20511;-69
2022/11/19 01:08:39;;;;;;;25.23;23.03;;;7.90;99.90;;;;;;5063413;28;20516;-71
2022/11/19 01:11:09;;;;;;;24.50;22.37;;;8.00;99.90;;;;;;5063603;28;20904;-70
2022/11/19 01:13:37;;;;;;;23.47;21.53;;;7.80;99.90;;;;;;5055918;28;20459;-70
2022/11/19 01:16:06;;;;;;;23.33;21.40;;;7.50;99.90;;;;;;5065040;28;20997;-71
2022/11/19 01:18:34;;;;;;;26.60;24.03;;;7.70;99.90;;;;;;5062073;28;20669;-70
2022/11/19 01:21:03;;;;;;;28.07;24.80;;;7.70;99.90;;;;;;5060077;28;20547;-70
2022/11/19 01:23:32;;;;;;;25.80;23.17;;;7.60;99.90;;;;;;5059726;28;20467;-70
2022/11/19 01:25:59;;;;;;;24.43;22.13;;;7.60;99.90;;;;;;5058895;28;20598;-70
2022/11/19 01:28:26;;;;;;;25.67;23.17;;;7.70;99.90;;;;;;5061380;28;20466;-68
2022/11/19 01:30:53;;;;;;;26.33;23.63;;;7.60;99.90;;;;;;5057823;28;20468;-69
2022/11/19 01:33:21;;;;;;;26.17;23.67;;;7.50;99.90;;;;;;5057366;28;20549;-69
2022/11/19 01:35:56;;;;;;;25.67;23.00;;;7.40;99.90;;;;;;5063467;28;20460;-70
2022/11/19 01:38:25;;;;;;;25.87;23.07;;;7.20;99.90;;;;;;5059289;28;20922;-69
2022/11/19 01:40:52;;;;;;;25.17;22.87;;;7.10;99.90;;;;;;5060915;28;20872;-69
2022/11/19 01:43:20;;;;;;;24.80;22.40;;;7.10;99.90;;;;;;5062299;28;20454;-70
2022/11/19 01:45:49;;;;;;;25.80;22.03;;;7.00;99.90;;;;;;5060470;28;20466;-70
2022/11/19 01:48:23;;;;;;;24.47;22.17;;;6.90;99.90;;;;;;5058339;28;20457;-69
2022/11/19 01:50:53;;;;;;;25.07;23.03;;;6.80;99.90;;;;;;5058527;28;20458;-67
2022/11/19 01:53:22;;;;;;;26.53;23.90;;;6.80;99.90;;;;;;5059190;28;20460;-69
2022/11/19 01:55:51;;;;;;;24.87;22.80;;;6.80;99.90;;;;;;5060241;28;20476;-69
2022/11/19 01:58:20;;;;;;;25.20;23.27;;;6.70;99.90;;;;;;5061789;28;20470;-69
2022/11/19 02:00:48;;;;;;;25.73;23.43;;;6.60;99.90;;;;;;5065898;28;20492;-68
2022/11/19 02:03:16;;;;;;;26.50;24.10;;;6.60;99.90;;;;;;5054817;28;20488;-68
2022/11/19 02:05:43;;;;;;;25.70;23.67;;;6.60;99.90;;;;;;5062188;28;20491;-68
2022/11/19 02:08:35;;;;;;;26.20;23.70;;;6.60;99.90;;;;;;5059783;28;20469;-69
2022/11/19 02:11:14;;;;;;;26.70;24.10;;;6.40;99.90;;;;;;5059259;28;20468;-69
2022/11/19 02:13:46;;;;;;;26.53;24.07;;;6.50;99.90;;;;;;5057491;28;20880;-68
2022/11/19 02:16:22;;;;;;;25.37;22.90;;;6.40;99.90;;;;;;5059046;28;20834;-68
2022/11/19 02:18:58;;;;;;;25.37;22.83;;;6.40;99.90;;;;;;5064658;28;20460;-69
2022/11/19 02:21:32;;;;;;;22.90;21.20;;;6.20;99.90;;;;;;5055074;28;20526;-68
2022/11/19 02:24:30;;;;;;;29.73;22.53;;;6.10;99.90;;;;;;5060882;28;20818;-69
2022/11/19 02:27:20;;;;;;;20.27;18.57;;;6.00;99.90;;;;;;5060907;28;20469;-69
2022/11/19 02:30:16;;;;;;;37.30;22.50;;;5.90;99.90;;;;;;5055914;28;20824;-69
2022/11/19 02:32:58;;;;;;;23.47;21.63;;;5.90;99.90;;;;;;5051437;28;20895;-68
2022/11/19 02:35:37;;;;;;;23.87;21.67;;;5.80;99.90;;;;;;5054928;28;20462;-69
2022/11/19 02:38:08;;;;;;;23.63;21.30;;;5.90;99.90;;;;;;5058047;28;20469;-68
2022/11/19 02:40:38;;;;;;;24.77;22.63;;;5.80;99.90;;;;;;5059932;28;20523;-68
2022/11/19 02:43:12;;;;;;;25.43;22.63;;;5.70;99.90;;;;;;5063652;28;20816;-68
2022/11/19 02:45:44;;;;;;;23.37;21.33;;;5.60;99.90;;;;;;5060364;28;20472;-69
2022/11/19 02:48:15;;;;;;;26.13;23.40;;;5.60;99.90;;;;;;5054320;28;20966;-69
2022/11/19 02:50:46;;;;;;;26.63;24.33;;;5.40;99.90;;;;;;5057257;28;20809;-68
2022/11/19 02:53:12;;;;;;;25.73;23.53;;;5.30;99.90;;;;;;5059401;28;20467;-68
2022/11/19 02:55:40;;;;;;;23.13;21.03;;;5.30;99.90;;;;;;5061690;28;20466;-69
2022/11/19 03:04:28;;;;;;;23.80;21.60;;;5.20;99.90;;;;;;5057853;28;20466;-68
2022/11/19 03:06:31;;;;;;;24.97;22.87;;;5.00;99.90;;;;;;5061186;28;20828;-69
2022/11/19 03:08:59;;;;;;;23.37;21.40;;;5.10;99.90;;;;;;5062607;28;20548;-70
2022/11/19 03:11:27;;;;;;;25.30;23.20;;;5.10;99.90;;;;;;5060754;28;20459;-69
2022/11/19 03:16:54;;;;;;;24.43;22.13;;;5.00;99.90;;;;;;5052072;28;20459;-69
2022/11/19 03:19:30;;;;;;;25.80;23.60;;;4.90;99.90;;;;;;5055835;28;20512;-69
2022/11/19 03:22:00;;;;;;;24.37;22.43;;;4.90;99.90;;;;;;5059751;28;20487;-68
2022/11/19 03:24:32;;;;;;;25.73;23.33;;;4.90;99.90;;;;;;5058622;28;20961;-72
2022/11/19 03:27:03;;;;;;;26.77;24.13;;;4.80;99.90;;;;;;5053502;28;20468;-71
2022/11/19 03:29:34;;;;;;;24.83;22.73;;;4.80;99.90;;;;;;5057160;28;20489;-71
2022/11/19 03:32:07;;;;;;;25.87;23.57;;;4.70;99.90;;;;;;5053907;28;20958;-71
2022/11/19 03:34:36;;;;;;;26.20;23.90;;;4.60;99.90;;;;;;5049511;28;20559;-71
2022/11/19 03:37:04;;;;;;;28.30;25.90;;;4.60;99.90;;;;;;5057829;28;20471;-71
2022/11/19 03:39:35;;;;;;;27.77;25.43;;;4.50;99.90;;;;;;5057940;28;20491;-70
2022/11/19 03:42:05;;;;;;;28.50;25.90;;;4.50;99.90;;;;;;5060848;28;20549;-71
2022/11/19 03:44:36;;;;;;;26.93;24.60;;;4.50;99.90;;;;;;5060476;28;20467;-71
2022/11/19 03:47:09;;;;;;;25.23;23.00;;;4.50;99.90;;;;;;5058694;28;20514;-71
2022/11/19 03:49:40;;;;;;;24.33;22.43;;;4.50;99.90;;;;;;5055033;28;20463;-71
2022/11/19 03:52:10;;;;;;;26.17;23.87;;;4.40;99.90;;;;;;5055546;28;21355;-71
2022/11/19 03:54:38;;;;;;;26.87;23.97;;;4.40;99.90;;;;;;5051589;28;20462;-70
2022/11/19 03:57:06;;;;;;;24.90;22.80;;;4.30;99.90;;;;;;5058537;28;20467;-71
2022/11/19 03:59:33;;;;;;;26.53;24.10;;;4.40;99.90;;;;;;5060971;28;20583;-71
2022/11/19 04:02:06;;;;;;;29.33;25.70;;;4.30;99.90;;;;;;5054418;28;20997;-71
2022/11/19 04:04:36;;;;;;;27.50;24.80;;;4.30;99.90;;;;;;5052748;28;20847;-71
2022/11/19 04:07:07;;;;;;;27.67;24.77;;;4.40;99.90;;;;;;5059244;28;21021;-71
2022/11/19 04:09:34;;;;;;;28.97;25.80;;;4.40;99.90;;;;;;5060387;28;20479;-72
2022/11/19 04:12:01;;;;;;;29.03;26.00;;;4.50;99.90;;;;;;5058831;28;20475;-72
2022/11/19 04:14:28;;;;;;;28.60;25.70;;;4.50;99.90;;;;;;5058759;28;20502;-71
2022/11/19 04:16:55;;;;;;;29.57;25.30;;;4.40;99.90;;;;;;5062188;28;20563;-71
2022/11/19 04:19:23;;;;;;;31.33;27.20;;;4.50;99.90;;;;;;5061210;28;20476;-71
2022/11/19 04:21:50;;;;;;;28.33;25.30;;;4.50;99.90;;;;;;5062467;28;20494;-71
2022/11/19 04:24:18;;;;;;;31.20;27.20;;;4.40;99.90;;;;;;5059127;28;20527;-71
2022/11/19 04:26:44;;;;;;;30.50;27.30;;;4.40;99.90;;;;;;5059360;28;20541;-71
2022/11/19 04:29:11;;;;;;;31.43;27.20;;;4.40;99.90;;;;;;5062987;28;20468;-71
2022/11/19 04:31:38;;;;;;;31.57;27.03;;;4.40;99.90;;;;;;5053836;28;20459;-71
2022/11/19 04:34:05;;;;;;;32.73;26.77;;;4.30;99.90;;;;;;5058129;28;20459;-71
2022/11/19 04:36:34;;;;;;;35.60;27.80;;;4.20;99.90;;;;;;5056970;28;20468;-71
2022/11/19 04:39:01;;;;;;;33.07;28.33;;;4.20;99.90;;;;;;5054216;28;20452;-71
2022/11/19 04:41:28;;;;;;;32.10;27.90;;;4.30;99.90;;;;;;5061676;28;20486;-71
2022/11/19 04:43:54;;;;;;;33.67;27.50;;;4.40;99.90;;;;;;5061407;28;20578;-71
2022/11/19 04:46:22;;;;;;;30.97;27.70;;;4.50;99.90;;;;;;5062805;28;20972;-71
2022/11/19 04:48:49;;;;;;;34.23;29.60;;;4.40;99.90;;;;;;5069274;28;20831;-70
2022/11/19 04:51:16;;;;;;;36.37;29.67;;;4.40;99.90;;;;;;5054138;28;20464;-71
2022/11/19 04:53:44;;;;;;;35.23;30.37;;;4.30;99.90;;;;;;5052910;28;20463;-71
2022/11/19 04:56:12;;;;;;;38.43;29.27;;;4.20;99.90;;;;;;5057122;28;20456;-71
2022/11/19 04:58:39;;;;;;;36.40;29.50;;;4.20;99.90;;;;;;5062057;28;20808;-71
2022/11/19 05:01:07;;;;;;;38.70;31.50;;;4.30;99.90;;;;;;5058422;28;20917;-71
2022/11/19 05:03:34;;;;;;;39.80;30.03;;;4.30;99.90;;;;;;5052275;28;20467;-71
2022/11/19 05:06:01;;;;;;;36.10;30.37;;;4.20;99.90;;;;;;5010021;28;1150988;-70
2022/11/19 05:08:28;;;;;;;38.07;32.93;;;4.20;99.90;;;;;;5056114;28;20460;-71
2022/11/19 05:10:57;;;;;;;37.53;30.87;;;4.10;99.90;;;;;;5062513;28;20966;-70
2022/11/19 05:13:23;;;;;;;44.20;32.80;;;4.20;99.90;;;;;;5058087;28;20948;-71
2022/11/19 05:15:51;;;;;;;41.87;30.80;;;4.20;99.90;;;;;;5065066;28;20467;-71
2022/11/19 05:18:18;;;;;;;32.60;29.23;;;4.30;99.90;;;;;;5054713;28;20470;-71
2022/11/19 05:20:44;;;;;;;41.93;31.80;;;4.30;99.90;;;;;;5054701;28;20514;-70
2022/11/19 05:23:11;;;;;;;38.37;30.23;;;4.20;99.90;;;;;;5061806;28;20547;-70
2022/11/19 05:25:38;;;;;;;46.30;33.87;;;4.00;99.90;;;;;;5061259;28;20460;-70
2022/11/19 05:28:07;;;;;;;42.33;33.03;;;4.00;99.90;;;;;;5059909;28;20962;-71
2022/11/19 05:30:33;;;;;;;44.67;32.70;;;4.00;99.90;;;;;;5057062;28;20491;-70
2022/11/19 05:33:00;;;;;;;38.67;33.17;;;4.00;99.90;;;;;;5056124;28;20451;-68
2022/11/19 05:35:28;;;;;;;43.17;34.10;;;4.00;99.90;;;;;;5057783;28;20495;-67
2022/11/19 05:37:55;;;;;;;44.40;32.87;;;3.90;99.90;;;;;;5057280;28;20463;-67
2022/11/19 05:40:21;;;;;;;44.07;33.87;;;3.90;99.90;;;;;;5059842;28;20471;-67
2022/11/19 05:42:48;;;;;;;42.67;33.83;;;3.90;99.90;;;;;;5061091;28;20861;-67
2022/11/19 05:45:17;;;;;;;44.10;32.37;;;3.80;99.90;;;;;;5055744;28;20475;-67
2022/11/19 05:47:44;;;;;;;46.33;31.70;;;3.80;99.90;;;;;;5059540;28;20463;-68
2022/11/19 05:50:11;;;;;;;39.90;32.93;;;3.80;99.90;;;;;;5052041;28;20467;-67
2022/11/19 05:52:38;;;;;;;47.20;34.47;;;3.80;99.90;;;;;;5060094;28;20459;-68
2022/11/19 05:55:05;;;;;;;42.53;34.40;;;3.80;99.90;;;;;;5053584;28;20459;-68
2022/11/19 05:57:35;;;;;;;54.10;36.00;;;3.90;99.90;;;;;;5052309;28;20487;-67
2022/11/19 06:00:02;;;;;;;42.53;31.43;;;3.90;99.90;;;;;;5058763;28;20469;-67
2022/11/19 06:02:31;;;;;;;39.93;32.63;;;3.90;99.90;;;;;;5054754;28;20484;-67
2022/11/19 06:04:57;;;;;;;53.10;36.20;;;3.80;99.90;;;;;;5054936;28;21048;-68
2022/11/19 06:07:24;;;;;;;43.50;32.90;;;4.00;99.90;;;;;;5051637;28;20472;-68
2022/11/19 06:09:51;;;;;;;47.00;34.97;;;4.00;99.90;;;;;;5065355;28;20516;-68
2022/11/19 06:12:18;;;;;;;50.63;34.27;;;3.90;99.90;;;;;;5058754;28;20467;-68
2022/11/19 06:14:45;;;;;;;45.23;34.17;;;4.00;99.90;;;;;;5055583;28;20463;-68
2022/11/19 06:17:12;;;;;;;48.17;33.30;;;4.10;99.90;;;;;;5056738;28;20513;-68
2022/11/19 06:19:40;;;;;;;51.73;33.50;;;4.00;99.90;;;;;;5059613;28;20470;-68
2022/11/19 06:22:07;;;;;;;50.90;34.00;;;3.90;99.90;;;;;;5055488;28;20484;-67
2022/11/19 06:24:34;;;;;;;45.87;35.27;;;3.90;99.90;;;;;;5054396;28;20461;-67
2022/11/19 06:27:01;;;;;;;52.00;35.47;;;3.80;99.90;;;;;;5052963;28;20471;-68
2022/11/19 06:29:28;;;;;;;48.80;35.03;;;3.80;99.90;;;;;;5060088;28;20570;-67
2022/11/19 06:31:55;;;;;;;49.47;35.83;;;3.80;99.90;;;;;;5059982;28;20474;-68
2022/11/19 06:34:22;;;;;;;45.53;33.87;;;3.80;99.90;;;;;;5057358;28;20458;-68
2022/11/19 06:36:51;;;;;;;50.23;37.00;;;3.80;99.90;;;;;;5053326;28;20460;-67
2022/11/19 06:39:18;;;;;;;49.47;34.53;;;3.90;99.90;;;;;;5052726;28;20518;-68
2022/11/19 06:41:47;;;;;;;53.60;34.60;;;3.80;99.90;;;;;;5060539;28;20499;-67
2022/11/19 06:44:14;;;;;;;52.77;35.30;;;3.90;99.90;;;;;;5060687;28;21644;-67
2022/11/19 06:46:41;;;;;;;45.50;34.43;;;3.90;99.90;;;;;;5060146;28;20472;-67
2022/11/19 06:49:09;;;;;;;60.53;36.33;;;3.90;99.90;;;;;;5056233;28;20921;-67
2022/11/19 06:51:36;;;;;;;48.60;34.90;;;3.80;99.90;;;;;;5053817;28;20556;-68
2022/11/19 06:54:04;;;;;;;51.73;37.50;;;3.70;99.90;;;;;;5057093;28;20454;-67
2022/11/19 06:56:31;;;;;;;50.67;36.40;;;3.70;99.90;;;;;;5055962;28;20471;-67
2022/11/19 06:58:58;;;;;;;47.50;36.33;;;3.70;99.90;;;;;;5057036;28;20474;-68
2022/11/19 07:01:25;;;;;;;50.70;37.67;;;3.80;99.90;;;;;;5060744;28;20459;-67
2022/11/19 07:03:52;;;;;;;50.23;37.07;;;3.90;99.90;;;;;;5057338;28;20463;-67
2022/11/19 07:06:19;;;;;;;49.17;35.77;;;3.70;99.90;;;;;;5059651;28;20474;-68
2022/11/19 07:08:45;;;;;;;63.53;37.40;;;3.80;99.90;;;;;;5054937;28;20475;-68
2022/11/19 07:13:58;;;;;;;52.37;38.10;;;3.80;99.90;;;;;;5061532;28;20996;-67
2022/11/19 07:16:31;;;;;;;50.93;37.93;;;3.80;99.90;;;;;;5058029;28;20553;-67
2022/11/19 07:18:59;;;;;;;54.10;37.80;;;3.80;99.90;;;;;;5055005;28;20459;-67
2022/11/19 07:21:26;;;;;;;51.70;37.33;;;3.60;99.90;;;;;;5053978;28;20467;-67
2022/11/19 07:23:53;;;;;;;55.70;39.50;;;3.50;99.90;;;;;;5057978;28;20493;-68
2022/11/19 07:26:22;;;;;;;57.97;36.83;;;3.60;99.90;;;;;;5051290;28;20509;-67
2022/11/19 07:28:49;;;;;;;52.73;35.23;;;3.60;99.90;;;;;;5059570;28;20504;-70
2022/11/19 07:31:15;;;;;;;47.70;37.40;;;3.60;99.90;;;;;;5058095;28;20464;-70
2022/11/19 07:33:42;;;;;;;48.07;34.60;;;3.50;99.90;;;;;;5048708;28;20456;-70
2022/11/19 07:36:10;;;;;;;54.17;33.00;;;3.50;99.90;;;;;;5055887;28;20467;-69
2022/11/19 07:38:38;;;;;;;48.97;35.90;;;3.60;99.90;;;;;;5053215;28;20470;-70
2022/11/19 07:42:47;;;;;;;47.93;33.63;;;3.40;99.90;;;;;;5054541;28;20516;-70
2022/11/19 07:43:54;;;;;;;53.53;35.60;;;3.40;99.90;;;;;;5052340;28;20482;-70
2022/11/19 07:46:22;;;;;;;47.50;33.90;;;3.50;99.90;;;;;;5052913;28;20470;-69
2022/11/19 07:48:53;;;;;;;52.13;35.97;;;3.40;99.90;;;;;;5054683;28;20467;-70
2022/11/19 07:51:21;;;;;;;46.47;31.60;;;3.40;99.90;;;;;;5055030;28;20486;-70
2022/11/19 07:53:48;;;;;;;54.60;38.30;;;3.50;99.90;;;;;;5054661;28;20807;-70
2022/11/19 07:56:15;;;;;;;52.23;36.60;;;3.50;99.90;;;;;;5057953;28;20458;-69
2022/11/19 07:58:42;;;;;;;50.47;36.47;;;3.40;99.90;;;;;;5052054;28;20513;-69
2022/11/19 08:01:13;;;;;;;54.17;35.07;;;3.40;99.90;;;;;;5054104;28;20763;-70
2022/11/19 08:03:41;;;;;;;50.73;33.47;;;3.40;99.90;;;;;;5054752;28;20498;-70
2022/11/19 08:06:09;;;;;;;56.80;37.57;;;3.30;99.90;;;;;;5056071;28;20476;-70
2022/11/19 08:08:36;;;;;;;52.50;33.67;;;3.30;99.90;;;;;;5053745;28;20554;-70
2022/11/19 08:11:04;;;;;;;68.60;35.80;;;3.20;99.90;;;;;;5050460;28;20464;-69
2022/11/19 08:13:31;;;;;;;50.67;34.77;;;3.40;99.90;;;;;;5058168;28;20558;-70
2022/11/19 08:16:03;;;;;;;50.70;34.30;;;3.50;99.90;;;;;;5053047;28;20468;-69
2022/11/19 08:18:30;;;;;;;59.83;37.43;;;3.50;99.90;;;;;;5056458;28;20928;-70
2022/11/19 08:21:04;;;;;;;51.57;34.17;;;3.50;99.90;;;;;;5050836;28;20813;-70
2022/11/19 08:23:31;;;;;;;43.97;33.80;;;3.60;99.90;;;;;;5055582;28;21008;-71
2022/11/19 08:25:58;;;;;;;51.93;34.40;;;3.60;99.90;;;;;;5054653;28;20459;-70
2022/11/19 08:28:26;;;;;;;44.80;31.43;;;3.50;99.90;;;;;;5049857;28;20467;-69
2022/11/19 08:30:52;;;;;;;51.60;33.97;;;3.50;99.90;;;;;;5051734;28;20467;-70
2022/11/19 08:33:19;;;;;;;57.40;34.47;;;3.60;99.90;;;;;;5047470;28;20717;-70
2022/11/19 08:35:48;;;;;;;49.00;31.20;;;3.50;99.90;;;;;;5058241;28;20464;-70
2022/11/19 08:38:16;;;;;;;45.60;33.43;;;3.60;99.90;;;;;;5058852;28;20455;-69
2022/11/19 08:40:43;;;;;;;60.07;35.87;;;3.70;99.90;;;;;;5054821;28;20471;-69
2022/11/19 08:43:09;;;;;;;52.47;35.37;;;3.70;99.90;;;;;;5064023;28;20569;-70
2022/11/19 08:45:38;;;;;;;46.70;31.77;;;3.60;99.90;;;;;;5056719;28;20562;-70
2022/11/19 08:48:09;;;;;;;50.30;33.80;;;3.60;99.90;;;;;;5058817;28;20479;-69
2022/11/19 08:50:36;;;;;;;51.23;35.20;;;3.60;99.90;;;;;;5056910;28;20979;-70
2022/11/19 08:53:05;;;;;;;57.63;34.70;;;3.60;99.90;;;;;;5053876;28;20490;-70
2022/11/19 08:55:32;;;;;;;45.20;30.73;;;3.50;99.90;;;;;;5057715;28;20458;-70
2022/11/19 08:58:01;;;;;;;51.87;32.70;;;3.50;99.90;;;;;;5061521;28;20494;-69
2022/11/19 09:00:29;;;;;;;51.40;33.30;;;3.50;99.90;;;;;;5061824;28;20459;-70
2022/11/19 09:02:56;;;;;;;57.80;34.57;;;3.40;99.90;;;;;;5056119;28;20479;-68
2022/11/19 09:05:23;;;;;;;50.30;33.20;;;3.50;99.90;;;;;;5058364;28;20581;-67
2022/11/19 09:07:50;;;;;;;49.73;33.90;;;3.60;99.90;;;;;;5057867;28;20555;-68
2022/11/19 09:10:18;;;;;;;49.03;31.90;;;3.60;99.90;;;;;;5059744;28;20485;-67
2022/11/19 09:12:45;;;;;;;53.30;35.30;;;3.70;99.90;;;;;;5062969;28;20604;-68
2022/11/19 09:15:12;;;;;;;49.57;34.00;;;3.70;99.90;;;;;;5057123;28;20454;-68
2022/11/19 09:17:39;;;;;;;56.73;35.33;;;3.70;99.90;;;;;;5053417;28;20500;-68
2022/11/19 09:20:07;;;;;;;50.00;33.50;;;3.70;99.90;;;;;;5053978;28;20989;-68
2022/11/19 09:22:34;;;;;;;57.30;34.43;;;3.60;99.90;;;;;;5054648;28;20497;-68
2022/11/19 09:25:01;;;;;;;54.30;34.83;;;3.70;99.90;;;;;;5051887;28;20461;-68
2022/11/19 09:27:29;;;;;;;54.70;35.40;;;3.60;99.90;;;;;;5053581;28;20486;-68
2022/11/19 09:29:56;;;;;;;55.60;33.70;;;3.60;99.90;;;;;;5059891;28;20459;-68
2022/11/19 09:32:23;;;;;;;50.20;32.67;;;3.60;99.90;;;;;;5055934;28;20471;-68
2022/11/19 09:34:50;;;;;;;53.17;34.30;;;3.50;99.90;;;;;;5061312;28;20872;-68
2022/11/19 09:37:17;;;;;;;56.73;37.03;;;3.60;99.90;;;;;;5060442;28;20861;-68
2022/11/19 09:39:44;;;;;;;48.33;34.37;;;3.70;99.90;;;;;;5059744;28;20482;-67
2022/11/19 09:42:16;;;;;;;50.00;35.17;;;3.60;99.90;;;;;;5052243;28;20479;-68
2022/11/19 09:45:10;;;;;;;50.97;33.20;;;3.60;99.90;;;;;;5058136;28;20795;-68
2022/11/19 09:47:54;;;;;;;51.57;34.63;;;3.70;99.90;;;;;;5059729;28;20463;-68
2022/11/19 09:50:24;;;;;;;48.63;33.27;;;3.70;99.90;;;;;;5063377;28;20855;-68
2022/11/19 09:52:57;;;;;;;56.60;35.40;;;3.60;99.90;;;;;;5067539;28;20933;-68
2022/11/19 09:55:31;;;;;;;59.87;36.60;;;3.90;99.90;;;;;;5058171;28;20471;-68
2022/11/19 09:57:59;;;;;;;49.10;31.83;;;3.90;99.90;;;;;;5059953;28;20474;-68
2022/11/19 10:00:30;;;;;;;58.80;34.47;;;4.10;99.90;;;;;;5060101;28;20475;-68
2022/11/19 10:02:58;;;;;;;52.93;34.10;;;4.20;99.90;;;;;;5049604;28;20500;-68
2022/11/19 10:05:32;;;;;;;49.83;33.87;;;4.20;99.90;;;;;;5060517;28;20567;-68
2022/11/19 10:08:15;;;;;;;54.23;34.67;;;4.20;99.90;;;;;;5057888;28;20600;-68
2022/11/19 10:10:47;;;;;;;49.27;32.47;;;4.10;99.90;;;;;;5057928;28;21100;-68
2022/11/19 10:13:28;;;;;;;54.40;34.40;;;4.30;99.90;;;;;;5047035;28;20976;-67
2022/11/19 10:16:12;;;;;;;46.93;33.80;;;4.30;99.90;;;;;;5059470;28;21017;-68
2022/11/19 10:18:47;;;;;;;48.37;33.70;;;4.50;99.90;;;;;;5057191;28;20569;-68
2022/11/19 10:21:21;;;;;;;45.50;32.93;;;4.50;99.90;;;;;;5060934;28;20475;-68
2022/11/19 10:23:51;;;;;;;36.27;28.43;;;4.40;99.90;;;;;;5058642;28;20498;-68
2022/11/19 10:26:22;;;;;;;43.50;30.60;;;4.10;99.90;;;;;;5051497;28;20468;-68
2022/11/19 10:28:54;;;;;;;49.20;33.97;;;4.00;99.90;;;;;;5058476;28;20513;-68
2022/11/19 10:31:30;;;;;;;46.47;32.93;;;4.20;99.90;;;;;;5059587;28;20470;-68
2022/11/19 10:34:04;;;;;;;47.70;32.30;;;4.30;99.90;;;;;;5054389;28;20459;-68
2022/11/19 10:36:36;;;;;;;41.40;30.87;;;4.40;99.90;;;;;;5059108;28;20460;-68
2022/11/19 10:39:10;;;;;;;45.47;30.07;;;4.20;99.90;;;;;;5051714;28;20459;-68
2022/11/19 10:41:44;;;;;;;45.30;31.60;;;4.10;99.90;;;;;;5056180;28;20480;-68
2022/11/19 10:47:03;;;;;;;51.70;33.70;;;3.90;99.90;;;;;;5062814;28;20769;-68
2022/11/19 10:49:31;;;;;;;48.33;32.30;;;4.00;99.90;;;;;;5059188;28;21401;-68
2022/11/19 10:51:58;;;;;;;45.50;32.97;;;4.10;99.90;;;;;;5053887;28;20473;-68
2022/11/19 10:54:28;;;;;;;43.60;29.83;;;4.20;99.90;;;;;;5058129;28;20539;-67
2022/11/19 10:56:57;;;;;;;50.00;34.80;;;4.20;99.90;;;;;;5059720;28;20838;-69
2022/11/19 10:59:26;;;;;;;42.20;31.30;;;4.40;99.90;;;;;;5058057;28;20464;-68
2022/11/19 11:01:58;;;;;;;40.17;30.53;;;4.40;99.90;;;;;;5060432;28;20869;-68
2022/11/19 11:04:27;;;;;;;39.57;30.63;;;4.30;99.90;;;;;;5053963;28;20562;-68
2022/11/19 11:06:56;;;;;;;38.77;28.67;;;4.40;99.90;;;;;;5057899;28;20781;-68
2022/11/19 11:09:34;;;;;;;41.93;31.33;;;4.30;99.90;;;;;;5051558;28;20556;-68
2022/11/19 11:14:54;;;;;;;41.10;32.37;;;4.10;99.90;;;;;;5022588;28;20462;-70
2022/11/19 11:17:24;;;;;;;41.73;29.87;;;4.00;99.90;;;;;;5059183;28;20471;-71
2022/11/19 11:20:05;;;;;;;42.70;31.30;;;4.10;99.90;;;;;;5057762;28;20455;-70
2022/11/19 11:22:33;;;;;;;46.73;33.40;;;4.20;99.90;;;;;;5048553;28;20464;-70
2022/11/19 11:25:01;;;;;;;37.53;30.83;;;4.30;99.90;;;;;;5057629;28;20487;-70
2022/11/19 11:27:32;;;;;;;36.17;29.20;;;4.40;99.90;;;;;;5054265;28;20942;-70
2022/11/19 11:30:14;;;;;;;39.13;29.83;;;4.40;99.90;;;;;;5048101;28;20467;-70
2022/11/19 11:32:42;;;;;;;38.90;29.70;;;4.30;99.90;;;;;;5055487;28;20475;-71
2022/11/19 11:35:29;;;;;;;39.80;29.73;;;4.30;99.90;;;;;;5056817;28;20471;-71
2022/11/19 11:37:56;;;;;;;41.23;31.20;;;4.20;99.90;;;;;;5054493;28;20927;-70
2022/11/19 11:40:24;;;;;;;39.23;30.17;;;4.20;99.90;;;;;;5056270;28;20464;-71
2022/11/19 11:42:52;;;;;;;45.20;31.27;;;4.30;99.90;;;;;;5052359;28;21083;-71
2022/11/19 11:45:27;;;;;;;40.80;30.60;;;4.30;99.90;;;;;;5057360;28;20482;-71
2022/11/19 11:47:56;;;;;;;41.20;30.63;;;4.40;99.90;;;;;;5059699;28;20642;-71
2022/11/19 11:50:27;;;;;;;44.40;31.13;;;4.50;99.90;;;;;;5051219;28;20455;-71
2022/11/19 11:52:56;;;;;;;38.30;30.47;;;4.70;99.90;;;;;;5057045;28;20820;-70
2022/11/19 11:55:32;;;;;;;41.43;29.63;;;4.70;99.90;;;;;;5058389;28;20459;-71
2022/11/19 11:58:01;;;;;;;38.63;29.90;;;4.50;99.90;;;;;;5056007;28;20570;-70
2022/11/19 12:00:31;;;;;;;33.27;26.87;;;4.50;99.90;;;;;;5060091;28;20455;-68
2022/11/19 12:03:04;;;;;;;39.63;29.50;;;4.50;99.90;;;;;;5058329;28;20547;-69
2022/11/19 12:05:44;;;;;;;37.97;30.73;;;4.50;99.90;;;;;;5056031;28;20573;-68
2022/11/19 12:08:25;;;;;;;39.23;28.50;;;4.60;99.90;;;;;;5053856;28;20476;-68
2022/11/19 12:10:56;;;;;;;40.07;29.70;;;4.80;99.90;;;;;;5056681;28;20842;-68
2022/11/19 12:13:46;;;;;;;41.07;29.33;;;4.90;99.90;;;;;;5047611;28;20955;-69
2022/11/19 12:16:21;;;;;;;34.93;30.27;;;4.60;99.90;;;;;;5046885;28;20920;-68
2022/11/19 12:18:58;;;;;;;37.30;27.77;;;4.50;99.90;;;;;;5055458;28;20467;-68
2022/11/19 12:21:37;;;;;;;40.30;31.30;;;4.40;99.90;;;;;;5056023;28;20467;-69
2022/11/19 12:24:23;;;;;;;36.20;29.03;;;4.40;99.90;;;;;;5051036;28;20492;-68
2022/11/19 12:26:59;;;;;;;38.03;29.90;;;4.50;99.90;;;;;;5055396;28;20500;-69
2022/11/19 12:29:34;;;;;;;35.50;30.23;;;4.60;99.90;;;;;;5064873;28;20509;-69
2022/11/19 12:32:21;;;;;;;41.20;30.90;;;4.50;99.90;;;;;;5062660;28;20545;-69
2022/11/19 12:35:10;;;;;;;43.47;31.63;;;4.30;99.90;;;;;;5060113;28;20479;-68
2022/11/19 12:37:55;;;;;;;54.90;35.60;;;4.40;99.90;;;;;;5061416;28;20462;-69
2022/11/19 12:40:36;;;;;;;82.33;46.40;;;4.40;99.90;;;;;;5058820;28;20554;-68
2022/11/19 12:43:11;;;;;;;31.87;28.23;;;4.40;99.90;;;;;;5055849;28;20460;-68
2022/11/19 12:45:44;;;;;;;38.57;29.90;;;4.40;99.90;;;;;;5061944;28;20539;-69
2022/11/19 12:48:31;;;;;;;46.53;35.53;;;4.50;99.90;;;;;;5059193;28;20492;-69
2022/11/19 12:51:05;;;;;;;40.70;30.80;;;4.40;99.90;;;;;;5054864;28;20456;-68
2022/11/19 12:53:47;;;;;;;41.40;28.87;;;4.50;99.90;;;;;;5061403;28;21005;-69
2022/11/19 12:56:27;;;;;;;36.23;28.50;;;4.70;99.90;;;;;;5065953;28;20486;-69
2022/11/19 12:59:03;;;;;;;34.20;27.90;;;4.80;99.90;;;;;;5058913;28;20516;-68
2022/11/19 13:01:35;;;;;;;39.33;28.13;;;4.80;99.90;;;;;;5061859;28;20477;-69
2022/11/19 13:04:10;;;;;;;34.80;26.60;;;4.70;99.90;;;;;;5061258;28;20478;-68
2022/11/19 13:06:42;;;;;;;34.87;27.97;;;4.70;99.90;;;;;;5061923;28;20522;-68
2022/11/19 13:09:18;;;;;;;38.47;27.60;;;4.60;99.90;;;;;;5054496;28;20468;-69
2022/11/19 13:11:50;;;;;;;33.13;25.90;;;4.50;99.90;;;;;;5058194;28;20470;-69